Time;durP1;ratioP1;P1;durP2;ratioP2;P2;SDS_P1;SDS_P2;PMS_P1;PMS_P2;Temp;Humidity;BMP_temperature;BMP_pressure;BME280_temperature;BME280_humidity;BME280_pressure;Samples;Min_cycle;Max_cycle;Signal;HPM_P1;HPM_P2
2023/02/11 00:01:48;;;;;;;;;;;26.80;99.90;;;;;;5011658;28;19976;-61
2023/02/11 00:04:15;;;;;;;;;;;26.90;99.90;;;;;;5011239;28;19932;-61
2023/02/11 00:06:42;;;;;;;;;;;27.00;99.90;;;;;;5012118;28;19936;-62
2023/02/11 00:09:09;;;;;;;;;;;27.20;99.90;;;;;;5011706;28;20284;-62
2023/02/11 00:11:36;;;;;;;;;;;27.20;99.90;;;;;;5011920;28;19909;-62
2023/02/11 00:14:04;;;;;;;;;;;27.20;99.90;;;;;;5012085;28;20003;-61
2023/02/11 00:16:31;;;;;;;;;;;27.20;99.90;;;;;;5011915;28;19914;-59
2023/02/11 00:19:01;;;;;;;;;;;27.30;99.90;;;;;;5010562;28;19909;-61
2023/02/11 00:21:28;;;;;;;;;;;27.40;99.90;;;;;;5013492;28;19940;-63
2023/02/11 00:23:56;;;;;;;;;;;27.70;99.90;;;;;;5015760;28;20356;-61
2023/02/11 00:26:25;;;;;;;;;;;27.70;99.90;;;;;;5015971;28;19914;-61
2023/02/11 00:28:52;;;;;;;;;;;27.70;99.90;;;;;;5015398;28;20150;-61
2023/02/11 00:31:20;;;;;;;;;;;27.70;99.90;;;;;;5014568;28;19913;-61
2023/02/11 00:33:47;;;;;;;;;;;27.80;99.90;;;;;;5015623;28;19914;-62
2023/02/11 00:36:15;;;;;;;;;;;28.10;99.90;;;;;;5015534;28;20280;-61
2023/02/11 00:38:46;;;;;;;;;;;28.00;99.90;;;;;;5015226;28;19920;-61
2023/02/11 00:41:13;;;;;;;;;;;27.90;99.90;;;;;;5015097;28;20292;-64
2023/02/11 00:43:40;;;;;;;;;;;27.90;99.90;;;;;;5015576;28;19917;-60
2023/02/11 00:46:07;;;;;;;;;;;28.30;99.90;;;;;;5014224;28;20011;-61
2023/02/11 00:48:34;;;;;;;;;;;28.40;99.90;;;;;;5014957;28;20288;-61
2023/02/11 00:51:01;;;;;;;;;;;28.30;99.90;;;;;;5015236;28;19957;-65
2023/02/11 00:53:27;;;;;;;;;;;28.30;99.90;;;;;;5014941;28;19910;-61
2023/02/11 00:55:54;;;;;;;;;;;28.20;99.90;;;;;;5015232;28;20410;-61
2023/02/11 00:58:21;;;;;;;;;;;28.50;99.90;;;;;;5014960;28;19910;-62
2023/02/11 01:00:48;;;;;;;;;;;28.50;99.90;;;;;;5014343;28;19921;-61
2023/02/11 01:03:15;;;;;;;;;;;28.40;99.90;;;;;;5014899;28;20009;-60
2023/02/11 01:05:42;;;;;;;;;;;28.40;99.90;;;;;;5014940;28;20331;-61
2023/02/11 01:08:08;;;;;;;;;;;28.90;99.90;;;;;;5014701;28;19917;-63
2023/02/11 01:10:35;;;;;;;;;;;29.10;99.90;;;;;;5014921;28;19913;-61
2023/02/11 01:13:02;;;;;;;;;;;29.20;99.90;;;;;;5014778;28;19925;-61
2023/02/11 01:15:29;;;;;;;;;;;29.30;99.90;;;;;;5013460;28;20357;-62
2023/02/11 01:17:56;;;;;;;;;;;29.50;99.90;;;;;;5014434;28;19964;-62
2023/02/11 01:20:25;;;;;;;;;;;29.80;99.90;;;;;;5014582;28;19913;-61
2023/02/11 01:22:51;;;;;;;;;;;30.50;99.90;;;;;;5013766;28;19961;-63
2023/02/11 01:25:18;;;;;;;;;;;31.20;99.90;;;;;;5014405;28;19917;-61
2023/02/11 01:27:45;;;;;;;;;;;31.60;99.90;;;;;;5014197;28;19913;-60
2023/02/11 01:30:12;;;;;;;;;;;32.00;99.90;;;;;;5014408;28;19914;-69
2023/02/11 01:32:39;;;;;;;;;;;32.10;99.90;;;;;;5013924;28;19914;-67
2023/02/11 01:35:06;;;;;;;;;;;32.40;99.90;;;;;;5014374;28;19913;-61
2023/02/11 01:37:33;;;;;;;;;;;32.40;99.90;;;;;;5013029;28;19918;-68
2023/02/11 01:40:04;;;;;;;;;;;32.60;99.90;;;;;;5014377;28;19988;-61
2023/02/11 01:42:32;;;;;;;;;;;32.80;99.90;;;;;;5014244;28;20246;-70
2023/02/11 01:44:59;;;;;;;;;;;32.80;99.90;;;;;;5029479;28;19922;-62
2023/02/11 01:47:26;;;;;;;;;;;32.80;99.90;;;;;;5013654;28;20372;-61
2023/02/11 01:49:57;;;;;;;;;;;32.30;99.90;;;;;;5014096;28;19910;-60
2023/02/11 01:52:29;;;;;;;;;;;32.10;99.90;;;;;;5013478;28;19964;-62
2023/02/11 01:57:45;;;;;;;;;;;31.20;99.90;;;;;;5013710;28;20288;-65
2023/02/11 02:00:21;;;;;;;;;;;30.60;99.90;;;;;;5013648;28;19914;-61
2023/02/11 02:03:00;;;;;;;;;;;30.50;99.90;;;;;;5013703;28;19933;-61
2023/02/11 02:05:41;;;;;;;;;;;30.20;99.90;;;;;;5013709;28;19918;-65
2023/02/11 02:08:15;;;;;;;;;;;29.90;99.90;;;;;;5012700;28;19937;-63
2023/02/11 02:10:43;;;;;;;;;;;29.70;99.90;;;;;;5013890;28;19914;-63
2023/02/11 02:13:10;;;;;;;;;;;29.60;99.90;;;;;;5013848;28;19910;-61
2023/02/11 02:15:38;;;;;;;;;;;29.60;99.90;;;;;;5013242;28;19909;-64
2023/02/11 02:18:07;;;;;;;;;;;29.60;99.90;;;;;;5013258;28;19918;-62
2023/02/11 02:20:40;;;;;;;;;;;29.50;99.90;;;;;;5013484;28;19910;-61
2023/02/11 02:23:21;;;;;;;;;;;29.50;99.90;;;;;;5013100;28;19921;-61
2023/02/11 02:25:51;;;;;;;;;;;29.40;99.90;;;;;;5013323;28;20379;-61
2023/02/11 02:28:37;;;;;;;;;;;29.40;99.90;;;;;;5013300;28;19914;-62
2023/02/11 02:31:16;;;;;;;;;;;29.30;99.90;;;;;;5013097;28;20388;-64
2023/02/11 02:34:01;;;;;;;;;;;29.20;99.90;;;;;;5013288;28;20283;-61
2023/02/11 02:36:34;;;;;;;;;;;28.90;99.90;;;;;;5012517;28;20007;-61
2023/02/11 02:39:04;;;;;;;;;;;28.90;99.90;;;;;;5012941;28;19917;-61
2023/02/11 02:41:31;;;;;;;;;;;29.00;99.90;;;;;;5013050;28;20003;-62
2023/02/11 02:43:58;;;;;;;;;;;29.00;99.90;;;;;;5012258;28;19961;-62
2023/02/11 02:46:29;;;;;;;;;;;28.90;99.90;;;;;;5013312;28;19932;-62
2023/02/11 02:48:56;;;;;;;;;;;28.80;99.90;;;;;;5012947;28;19959;-64
2023/02/11 02:51:30;;;;;;;;;;;28.80;99.90;;;;;;5012510;28;19913;-61
2023/02/11 02:54:14;;;;;;;;;;;28.80;99.90;;;;;;5012830;28;20068;-61
2023/02/11 02:56:50;;;;;;;;;;;28.70;99.90;;;;;;5012911;28;19917;-62
2023/02/11 02:59:25;;;;;;;;;;;28.80;99.90;;;;;;5012687;28;20368;-61
2023/02/11 03:01:55;;;;;;;;;;;28.80;99.90;;;;;;5012765;28;19926;-61
2023/02/11 03:04:40;;;;;;;;;;;28.80;99.90;;;;;;5012801;28;19948;-62
2023/02/11 03:07:20;;;;;;;;;;;28.80;99.90;;;;;;5011892;28;19913;-62
2023/02/11 03:09:52;;;;;;;;;;;28.80;99.90;;;;;;5012824;28;19917;-61
2023/02/11 03:12:19;;;;;;;;;;;28.80;99.90;;;;;;5012935;28;19917;-62
2023/02/11 03:14:49;;;;;;;;;;;28.80;99.90;;;;;;5012765;28;19914;-61
2023/02/11 03:17:16;;;;;;;;;;;28.90;99.90;;;;;;5012347;28;20004;-68
2023/02/11 03:19:43;;;;;;;;;;;29.00;99.90;;;;;;5012664;28;19922;-61
2023/02/11 03:22:12;;;;;;;;;;;29.00;99.90;;;;;;4994353;28;19913;-62
2023/02/11 03:24:40;;;;;;;;;;;29.00;99.90;;;;;;5012471;28;20402;-62
2023/02/11 03:27:33;;;;;;;;;;;29.00;99.90;;;;;;5012495;28;19920;-62
2023/02/11 03:30:12;;;;;;;;;;;29.00;99.90;;;;;;4983317;28;19963;-62
2023/02/11 03:32:41;;;;;;;;;;;28.90;99.90;;;;;;5003871;28;19917;-62
2023/02/11 03:35:07;;;;;;;;;;;28.80;99.90;;;;;;5004116;28;20403;-64
2023/02/11 03:37:34;;;;;;;;;;;28.90;99.90;;;;;;5003642;28;19917;-62
2023/02/11 03:40:04;;;;;;;;;;;29.00;99.90;;;;;;5004013;28;19914;-62
2023/02/11 03:42:34;;;;;;;;;;;28.90;99.90;;;;;;5003984;28;20291;-63
2023/02/11 03:45:09;;;;;;;;;;;29.00;99.90;;;;;;5003530;28;19926;-68
2023/02/11 03:47:37;;;;;;;;;;;29.00;99.90;;;;;;5003824;28;20384;-62
2023/02/11 03:50:05;;;;;;;;;;;29.10;99.90;;;;;;5003021;28;19953;-62
2023/02/11 03:52:33;;;;;;;;;;;29.10;99.90;;;;;;5003584;28;19917;-71
2023/02/11 03:55:02;;;;;;;;;;;28.90;99.90;;;;;;5003817;28;20359;-62
2023/02/11 03:57:29;;;;;;;;;;;28.80;99.90;;;;;;5003061;28;19913;-62
2023/02/11 03:59:59;;;;;;;;;;;28.70;99.90;;;;;;5003862;28;19914;-62
2023/02/11 04:02:27;;;;;;;;;;;28.70;99.90;;;;;;5003868;28;19926;-63
2023/02/11 04:04:54;;;;;;;;;;;28.50;99.90;;;;;;5003226;28;19925;-67
2023/02/11 04:07:21;;;;;;;;;;;28.50;99.90;;;;;;5003736;28;19914;-61
2023/02/11 04:09:48;;;;;;;;;;;28.40;99.90;;;;;;5003352;28;20625;-61
2023/02/11 04:12:14;;;;;;;;;;;28.30;99.90;;;;;;5003859;28;19917;-62
2023/02/11 04:14:41;;;;;;;;;;;28.20;99.90;;;;;;5003883;28;20036;-62
2023/02/11 04:17:08;;;;;;;;;;;28.20;99.90;;;;;;5003432;28;20326;-62
2023/02/11 04:19:34;;;;;;;;;;;28.20;99.90;;;;;;5002931;28;20792;-63
2023/02/11 04:22:01;;;;;;;;;;;28.20;99.90;;;;;;5003566;28;20334;-63
2023/02/11 04:24:28;;;;;;;;;;;28.20;99.90;;;;;;5003248;28;19929;-64
2023/02/11 04:26:55;;;;;;;;;;;28.20;99.90;;;;;;5003750;28;19913;-62
2023/02/11 04:29:22;;;;;;;;;;;28.30;99.90;;;;;;5003201;28;19917;-63
2023/02/11 04:31:48;;;;;;;;;;;28.20;99.90;;;;;;5003802;28;19996;-63
2023/02/11 04:34:15;;;;;;;;;;;28.20;99.90;;;;;;5002785;28;19967;-61
2023/02/11 04:36:43;;;;;;;;;;;28.20;99.90;;;;;;5003038;28;19956;-60
2023/02/11 04:39:10;;;;;;;;;;;28.20;99.90;;;;;;5004029;28;19920;-62
2023/02/11 04:41:36;;;;;;;;;;;28.20;99.90;;;;;;5004447;28;20653;-61
2023/02/11 04:44:03;;;;;;;;;;;28.30;99.90;;;;;;5003957;28;19913;-61
2023/02/11 04:46:30;;;;;;;;;;;28.30;99.90;;;;;;5004017;28;20446;-61
2023/02/11 04:48:57;;;;;;;;;;;28.30;99.90;;;;;;5003376;28;20008;-61
2023/02/11 04:51:23;;;;;;;;;;;28.30;99.90;;;;;;5003693;28;19918;-61
2023/02/11 04:53:50;;;;;;;;;;;28.40;99.90;;;;;;5003420;28;19922;-61
2023/02/11 04:56:17;;;;;;;;;;;28.50;99.90;;;;;;5003505;28;19920;-62
2023/02/11 04:58:43;;;;;;;;;;;28.50;99.90;;;;;;5003023;28;19936;-61
2023/02/11 05:01:11;;;;;;;;;;;28.50;99.90;;;;;;5003950;28;19913;-61
2023/02/11 05:03:38;;;;;;;;;;;28.50;99.90;;;;;;5002525;28;19971;-61
2023/02/11 05:06:05;;;;;;;;;;;28.50;99.90;;;;;;4985084;28;19925;-62
2023/02/11 05:08:32;;;;;;;;;;;28.40;99.90;;;;;;4989225;28;19945;-68
2023/02/11 05:11:01;;;;;;;;;;;28.30;99.90;;;;;;5015721;28;19992;-68
2023/02/11 05:13:28;;;;;;;;;;;28.30;99.90;;;;;;5017107;28;19917;-64
2023/02/11 05:15:54;;;;;;;;;;;28.40;99.90;;;;;;5012872;28;19945;-68
2023/02/11 05:18:21;;;;;;;;;;;28.40;99.90;;;;;;5011445;28;19914;-63
2023/02/11 05:20:48;;;;;;;;;;;28.30;99.90;;;;;;4991205;28;19953;-61
2023/02/11 05:23:15;;;;;;;;;;;28.30;99.90;;;;;;4996671;28;19910;-62
2023/02/11 05:25:41;;;;;;;;;;;28.20;99.90;;;;;;5017656;28;19973;-66
2023/02/11 05:28:08;;;;;;;;;;;28.20;99.90;;;;;;5002176;28;20269;-64
2023/02/11 05:30:35;;;;;;;;;;;28.20;99.90;;;;;;4996092;28;19917;-62
2023/02/11 05:33:01;;;;;;;;;;;28.20;99.90;;;;;;4995491;28;19914;-65
2023/02/11 05:35:28;;;;;;;;;;;28.00;99.90;;;;;;5014024;28;19917;-68
2023/02/11 05:37:55;;;;;;;;;;;28.10;99.90;;;;;;5014584;28;19913;-63
2023/02/11 05:40:21;;;;;;;;;;;28.00;99.90;;;;;;5015716;28;19917;-68
2023/02/11 05:42:48;;;;;;;;;;;28.00;99.90;;;;;;5015118;28;19913;-62
2023/02/11 05:45:15;;;;;;;;;;;27.80;99.90;;;;;;5014456;28;19939;-68
2023/02/11 05:47:41;;;;;;;;;;;27.90;99.90;;;;;;5014541;28;20265;-64
2023/02/11 05:50:08;;;;;;;;;;;27.90;99.90;;;;;;5014094;28;19909;-63
2023/02/11 05:52:34;;;;;;;;;;;27.80;99.90;;;;;;5014669;28;19957;-63
2023/02/11 05:55:01;;;;;;;;;;;27.70;99.90;;;;;;5014247;28;19914;-64
2023/02/11 05:57:28;;;;;;;;;;;27.70;99.90;;;;;;5013989;28;19952;-68
2023/02/11 05:59:54;;;;;;;;;;;27.70;99.90;;;;;;5014080;28;20368;-65
2023/02/11 06:02:22;;;;;;;;;;;27.60;99.90;;;;;;5014318;28;19967;-65
2023/02/11 06:04:48;;;;;;;;;;;27.60;99.90;;;;;;5013892;28;19969;-71
2023/02/11 06:07:16;;;;;;;;;;;27.60;99.90;;;;;;5013859;28;19968;-66
2023/02/11 06:09:42;;;;;;;;;;;27.60;99.90;;;;;;5014318;28;19913;-66
2023/02/11 06:12:09;;;;;;;;;;;27.50;99.90;;;;;;5014490;28;20024;-68
2023/02/11 06:14:36;;;;;;;;;;;27.50;99.90;;;;;;5014216;28;20328;-63
2023/02/11 06:17:03;;;;;;;;;;;27.50;99.90;;;;;;5013674;28;20402;-62
2023/02/11 06:19:30;;;;;;;;;;;27.40;99.90;;;;;;5012141;28;19913;-67
2023/02/11 06:21:56;;;;;;;;;;;27.40;99.90;;;;;;5014255;28;20032;-66
2023/02/11 06:24:23;;;;;;;;;;;27.40;99.90;;;;;;5014068;28;19995;-67
2023/02/11 06:26:50;;;;;;;;;;;27.40;99.90;;;;;;5013874;28;19937;-62
2023/02/11 06:29:17;;;;;;;;;;;27.40;99.90;;;;;;5013870;28;19917;-65
2023/02/11 06:31:43;;;;;;;;;;;27.30;99.90;;;;;;5014214;28;19910;-70
2023/02/11 06:34:10;;;;;;;;;;;27.20;99.90;;;;;;5013538;28;20383;-70
2023/02/11 06:36:40;;;;;;;;;;;27.10;99.90;;;;;;5013954;28;19910;-63
2023/02/11 06:39:07;;;;;;;;;;;27.00;99.90;;;;;;5013949;28;20356;-68
2023/02/11 06:41:34;;;;;;;;;;;26.90;99.90;;;;;;5013685;28;20365;-69
2023/02/11 06:44:00;;;;;;;;;;;26.80;99.90;;;;;;5013798;28;20428;-66
2023/02/11 06:46:27;;;;;;;;;;;26.80;99.90;;;;;;5013464;28;20288;-63
2023/02/11 06:48:54;;;;;;;;;;;26.80;99.90;;;;;;5011567;28;20055;-66
2023/02/11 06:51:20;;;;;;;;;;;26.80;99.90;;;;;;5010976;28;20340;-62
2023/02/11 06:53:47;;;;;;;;;;;26.70;99.90;;;;;;5011847;28;19909;-65
2023/02/11 06:56:26;;;;;;;;;;;26.50;99.90;;;;;;5011550;28;20059;-67
2023/02/11 06:58:56;;;;;;;;;;;26.30;99.90;;;;;;5011209;28;20813;-62
2023/02/11 07:01:23;;;;;;;;;;;26.10;99.90;;;;;;5004170;28;19922;-62
2023/02/11 07:03:50;;;;;;;;;;;26.00;99.90;;;;;;5004144;28;19953;-64
2023/02/11 07:06:18;;;;;;;;;;;26.00;99.90;;;;;;4986446;28;19921;-65
2023/02/11 07:08:45;;;;;;;;;;;26.00;99.90;;;;;;5003922;28;19914;-64
2023/02/11 07:11:13;;;;;;;;;;;25.90;99.90;;;;;;5003759;28;20296;-66
2023/02/11 07:13:39;;;;;;;;;;;25.90;99.90;;;;;;5003742;28;20701;-65
2023/02/11 07:16:07;;;;;;;;;;;25.90;99.90;;;;;;5003600;28;20360;-65
2023/02/11 07:18:34;;;;;;;;;;;26.00;99.90;;;;;;5003280;28;19913;-65
2023/02/11 07:21:04;;;;;;;;;;;26.00;99.90;;;;;;5003922;28;19917;-62
2023/02/11 07:23:31;;;;;;;;;;;26.00;99.90;;;;;;5003659;28;19920;-62
2023/02/11 07:25:57;;;;;;;;;;;26.00;99.90;;;;;;5004251;28;20013;-65
2023/02/11 07:28:24;;;;;;;;;;;26.00;99.90;;;;;;5003274;28;19960;-63
2023/02/11 07:30:51;;;;;;;;;;;26.00;99.90;;;;;;5003340;28;19913;-69
2023/02/11 07:33:17;;;;;;;;;;;26.00;99.90;;;;;;5003586;28;19932;-66
2023/02/11 07:35:44;;;;;;;;;;;26.00;99.90;;;;;;5003785;28;20369;-65
2023/02/11 07:38:10;;;;;;;;;;;26.00;99.90;;;;;;5003919;28;20608;-69
2023/02/11 07:40:37;;;;;;;;;;;25.90;99.90;;;;;;5002361;28;20023;-66
2023/02/11 07:43:04;;;;;;;;;;;25.90;99.90;;;;;;5003295;28;20376;-66
2023/02/11 07:45:30;;;;;;;;;;;25.90;99.90;;;;;;5003974;28;20725;-71
2023/02/11 07:47:57;;;;;;;;;;;25.90;99.90;;;;;;5003308;28;19918;-71
2023/02/11 07:50:24;;;;;;;;;;;25.90;99.90;;;;;;5003953;28;19990;-65
2023/02/11 07:52:51;;;;;;;;;;;25.90;99.90;;;;;;5005796;28;20448;-61
2023/02/11 07:55:23;;;;;;;;;;;25.90;99.90;;;;;;5003858;28;19996;-68
2023/02/11 07:57:51;;;;;;;;;;;25.80;99.90;;;;;;5000995;28;19913;-70
2023/02/11 08:00:17;;;;;;;;;;;25.80;99.90;;;;;;5003571;28;19921;-62
2023/02/11 08:02:44;;;;;;;;;;;25.80;99.90;;;;;;5003181;28;19925;-62
2023/02/11 08:05:10;;;;;;;;;;;25.80;99.90;;;;;;5003243;28;19921;-62
2023/02/11 08:07:37;;;;;;;;;;;25.60;99.90;;;;;;5002546;28;19964;-61
2023/02/11 08:10:04;;;;;;;;;;;25.50;99.90;;;;;;5002716;28;20402;-64
2023/02/11 08:12:30;;;;;;;;;;;25.50;99.90;;;;;;5002848;28;20241;-64
2023/02/11 08:14:57;;;;;;;;;;;25.50;99.90;;;;;;5003061;28;20331;-63
2023/02/11 08:17:24;;;;;;;;;;;25.50;99.90;;;;;;5002817;28;19940;-62
2023/02/11 08:19:50;;;;;;;;;;;25.40;99.90;;;;;;5003345;28;19920;-62
2023/02/11 08:22:18;;;;;;;;;;;25.40;99.90;;;;;;5002739;28;20643;-65
2023/02/11 08:24:45;;;;;;;;;;;25.40;99.90;;;;;;5003154;28;19922;-62
2023/02/11 08:27:12;;;;;;;;;;;25.40;99.90;;;;;;5002936;28;19914;-61
2023/02/11 08:29:38;;;;;;;;;;;25.40;99.90;;;;;;5003137;28;19914;-64
2023/02/11 08:32:05;;;;;;;;;;;25.40;99.90;;;;;;5003346;28;19921;-62
2023/02/11 08:34:33;;;;;;;;;;;25.40;99.90;;;;;;5009385;28;19913;-62
2023/02/11 08:36:59;;;;;;;;;;;25.40;99.90;;;;;;5010949;28;20345;-61
2023/02/11 08:39:26;;;;;;;;;;;25.40;99.90;;;;;;5011152;28;19910;-61
2023/02/11 08:41:55;;;;;;;;;;;25.30;99.90;;;;;;5011862;28;19913;-61
2023/02/11 08:44:22;;;;;;;;;;;25.30;99.90;;;;;;5015128;28;19913;-61
2023/02/11 08:46:49;;;;;;;;;;;25.30;99.90;;;;;;5014762;28;19909;-61
2023/02/11 08:49:16;;;;;;;;;;;25.30;99.90;;;;;;5014818;28;19921;-64
2023/02/11 08:51:43;;;;;;;;;;;25.30;99.90;;;;;;5014941;28;19936;-61
2023/02/11 08:54:10;;;;;;;;;;;25.40;99.90;;;;;;5014947;28;19915;-61
2023/02/11 08:56:37;;;;;;;;;;;25.30;99.90;;;;;;5009326;28;19924;-61
2023/02/11 08:59:04;;;;;;;;;;;25.40;99.90;;;;;;5006571;28;20019;-60
2023/02/11 09:01:31;;;;;;;;;;;25.40;99.90;;;;;;5006394;28;20436;-62
2023/02/11 09:03:58;;;;;;;;;;;25.50;99.90;;;;;;5006644;28;19949;-61
2023/02/11 09:06:25;;;;;;;;;;;25.40;99.90;;;;;;5395781;23;20371;-68
2023/02/11 09:08:53;;;;;;;;;;;25.40;99.90;;;;;;5008272;28;20366;-67
2023/02/11 09:11:21;;;;;;;;;;;25.40;99.90;;;;;;5008951;28;19920;-70
2023/02/11 09:13:48;;;;;;;;;;;25.50;99.90;;;;;;5008360;28;20000;-66
2023/02/11 09:16:17;;;;;;;;;;;25.50;99.90;;;;;;5008812;28;19921;-72
2023/02/11 09:18:44;;;;;;;;;;;25.40;99.90;;;;;;5007062;28;20256;-71
2023/02/11 09:21:11;;;;;;;;;;;25.40;99.90;;;;;;5006904;28;20444;-68
2023/02/11 09:23:40;;;;;;;;;;;25.40;99.90;;;;;;5006253;28;19975;-70
2023/02/11 09:26:08;;;;;;;;;;;25.40;99.90;;;;;;5005995;28;19991;-65
2023/02/11 09:28:34;;;;;;;;;;;25.40;99.90;;;;;;5006471;28;19996;-67
2023/02/11 09:31:05;;;;;;;;;;;25.30;99.90;;;;;;5005810;28;19975;-65
2023/02/11 09:33:32;;;;;;;;;;;25.30;99.90;;;;;;5005471;28;19914;-71
2023/02/11 09:36:05;;;;;;;;;;;25.30;99.90;;;;;;5005660;28;19918;-65
2023/02/11 09:38:32;;;;;;;;;;;25.30;99.90;;;;;;5005164;28;20491;-65
2023/02/11 09:41:01;;;;;;;;;;;25.30;99.90;;;;;;5005575;28;20444;-67
2023/02/11 09:43:35;;;;;;;;;;;25.30;99.90;;;;;;5005593;28;19921;-65
2023/02/11 09:46:03;;;;;;;;;;;25.30;99.90;;;;;;5005013;28;19921;-66
2023/02/11 09:48:33;;;;;;;;;;;25.20;99.90;;;;;;5004702;28;19914;-72
2023/02/11 09:51:01;;;;;;;;;;;25.20;99.90;;;;;;5005589;28;19920;-67
2023/02/11 09:53:30;;;;;;;;;;;25.10;99.90;;;;;;4986930;28;19917;-65
2023/02/11 09:56:01;;;;;;;;;;;25.10;99.90;;;;;;5005150;28;19920;-69
2023/02/11 09:58:29;;;;;;;;;;;25.10;99.90;;;;;;5004097;28;19923;-64
2023/02/11 10:01:08;;;;;;;;;;;25.10;99.90;;;;;;5010011;28;19913;-64
2023/02/11 10:03:42;;;;;;;;;;;25.00;99.90;;;;;;5020017;28;19917;-69
2023/02/11 10:06:18;;;;;;;;;;;25.00;99.90;;;;;;5004235;28;20406;-64
2023/02/11 10:09:01;;;;;;;;;;;24.90;99.90;;;;;;5004984;28;20282;-73
2023/02/11 10:11:35;;;;;;;;;;;24.90;99.90;;;;;;5004493;28;20268;-64
2023/02/11 10:14:20;;;;;;;;;;;24.90;99.90;;;;;;5004991;28;19945;-74
2023/02/11 10:17:10;;;;;;;;;;;24.90;99.90;;;;;;5004810;28;20482;-64
2023/02/11 10:19:39;;;;;;;;;;;24.80;99.90;;;;;;4990941;28;19917;-65
2023/02/11 10:22:06;;;;;;;;;;;24.80;99.90;;;;;;5004016;28;20001;-65
2023/02/11 10:24:33;;;;;;;;;;;24.70;99.90;;;;;;5004675;28;19920;-70
2023/02/11 10:27:01;;;;;;;;;;;24.70;99.90;;;;;;5004545;28;19927;-64
2023/02/11 10:29:35;;;;;;;;;;;24.60;99.90;;;;;;5004914;28;20610;-67
2023/02/11 10:32:05;;;;;;;;;;;24.60;99.90;;;;;;5005106;28;20359;-70
2023/02/11 10:34:32;;;;;;;;;;;24.60;99.90;;;;;;5004224;28;19917;-64
2023/02/11 10:36:59;;;;;;;;;;;24.50;99.90;;;;;;5004537;28;20283;-65
2023/02/11 10:39:28;;;;;;;;;;;24.60;99.90;;;;;;5004461;28;19921;-66
2023/02/11 10:41:56;;;;;;;;;;;24.50;99.90;;;;;;5005044;28;19913;-71
2023/02/11 10:44:26;;;;;;;;;;;24.50;99.90;;;;;;5004950;28;19991;-65
2023/02/11 10:46:54;;;;;;;;;;;24.50;99.90;;;;;;5004556;28;19992;-64
2023/02/11 10:49:39;;;;;;;;;;;24.40;99.90;;;;;;5003518;28;19917;-64
2023/02/11 10:52:38;;;;;;;;;;;24.50;99.90;;;;;;5004576;28;19913;-65
2023/02/11 10:55:13;;;;;;;;;;;24.40;99.90;;;;;;4970938;28;19914;-67
2023/02/11 10:57:50;;;;;;;;;;;24.40;99.90;;;;;;5004257;28;20040;-64
2023/02/11 11:00:26;;;;;;;;;;;24.30;99.90;;;;;;5003006;28;19920;-69
2023/02/11 11:02:57;;;;;;;;;;;24.30;99.90;;;;;;4984875;28;20033;-64
2023/02/11 11:05:35;;;;;;;;;;;24.30;99.90;;;;;;4983253;28;19929;-66
2023/02/11 11:08:04;;;;;;;;;;;24.30;99.90;;;;;;4984664;28;20337;-67
2023/02/11 11:10:41;;;;;;;;;;;24.30;99.90;;;;;;4985120;28;19925;-68
2023/02/11 11:13:25;;;;;;;;;;;24.40;99.90;;;;;;4984620;28;19914;-70
2023/02/11 11:16:15;;;;;;;;;;;24.30;99.90;;;;;;4984256;28;20303;-64
2023/02/11 11:18:43;;;;;;;;;;;24.30;99.90;;;;;;4984682;28;19945;-66
2023/02/11 11:21:13;;;;;;;;;;;24.40;99.90;;;;;;4984381;28;19918;-64
2023/02/11 11:23:46;;;;;;;;;;;24.30;99.90;;;;;;4983589;28;19914;-67
2023/02/11 11:26:13;;;;;;;;;;;24.30;99.90;;;;;;4983969;28;20269;-64
2023/02/11 11:29:02;;;;;;;;;;;24.30;99.90;;;;;;4984382;28;19940;-65
2023/02/11 11:32:00;;;;;;;;;;;24.30;99.90;;;;;;4975944;28;19918;-64
2023/02/11 11:34:32;;;;;;;;;;;24.30;99.90;;;;;;4982987;28;19920;-66
2023/02/11 11:36:59;;;;;;;;;;;24.30;99.90;;;;;;4983061;28;20372;-65
2023/02/11 11:39:28;;;;;;;;;;;24.30;99.90;;;;;;4992321;28;19949;-64
2023/02/11 11:41:59;;;;;;;;;;;24.20;99.90;;;;;;4992892;28;19925;-64
2023/02/11 11:44:30;;;;;;;;;;;24.20;99.90;;;;;;4992825;28;20434;-66
2023/02/11 11:47:06;;;;;;;;;;;24.20;99.90;;;;;;4975077;28;19914;-64
2023/02/11 11:49:36;;;;;;;;;;;24.20;99.90;;;;;;4992569;28;19910;-64
2023/02/11 11:52:14;;;;;;;;;;;24.20;99.90;;;;;;4992776;28;19932;-64
2023/02/11 11:54:44;;;;;;;;;;;24.20;99.90;;;;;;4992842;28;19914;-64
2023/02/11 11:57:18;;;;;;;;;;;24.20;99.90;;;;;;4992961;28;20330;-64
2023/02/11 11:59:44;;;;;;;;;;;24.10;99.90;;;;;;4992714;28;19914;-64
2023/02/11 12:02:20;;;;;;;;;;;24.10;99.90;;;;;;5022250;28;19945;-64
2023/02/11 12:04:53;;;;;;;;;;;24.10;99.90;;;;;;5031746;28;19917;-64
2023/02/11 12:07:19;;;;;;;;;;;24.10;99.90;;;;;;5031117;28;20051;-64
2023/02/11 12:09:58;;;;;;;;;;;24.10;99.90;;;;;;5031862;28;19920;-64
2023/02/11 12:12:31;;;;;;;;;;;24.00;99.90;;;;;;5031868;28;19920;-66
2023/02/11 12:14:57;;;;;;;;;;;24.00;99.90;;;;;;5031878;28;19964;-64
2023/02/11 12:17:44;;;;;;;;;;;24.00;99.90;;;;;;5034462;28;19920;-64
2023/02/11 12:20:17;;;;;;;;;;;24.00;99.90;;;;;;5035568;28;19909;-64
2023/02/11 12:22:54;;;;;;;;;;;24.00;99.90;;;;;;5028230;28;19913;-65
2023/02/11 12:25:24;;;;;;;;;;;23.90;99.90;;;;;;5008518;28;20417;-64
2023/02/11 12:27:54;;;;;;;;;;;23.90;99.90;;;;;;5026807;28;20464;-67
2023/02/11 12:30:21;;;;;;;;;;;23.90;99.90;;;;;;5027022;28;20404;-68
2023/02/11 12:32:47;;;;;;;;;;;23.90;99.90;;;;;;5027171;28;19995;-68
2023/02/11 12:35:19;;;;;;;;;;;23.90;99.90;;;;;;5026109;28;19913;-65
2023/02/11 12:37:45;;;;;;;;;;;23.90;99.90;;;;;;5026785;28;19946;-68
2023/02/11 12:40:15;;;;;;;;;;;23.90;99.90;;;;;;5026427;28;19919;-65
2023/02/11 12:45:32;;;;;;;;;;;23.90;99.90;;;;;;5025791;28;20879;-71
2023/02/11 12:48:21;;;;;;;;;;;23.90;99.90;;;;;;5026268;28;19917;-66
2023/02/11 12:51:05;;;;;;;;;;;23.90;99.90;;;;;;5026706;28;19913;-67
2023/02/11 12:53:52;;;;;;;;;;;23.90;99.90;;;;;;5026634;28;19924;-67
2023/02/11 12:56:22;;;;;;;;;;;23.90;99.90;;;;;;5026044;28;19964;-63
2023/02/11 12:58:52;;;;;;;;;;;23.80;99.90;;;;;;5008031;28;20310;-68
2023/02/11 13:01:18;;;;;;;;;;;23.80;99.90;;;;;;5026042;28;20391;-69
2023/02/11 13:03:45;;;;;;;;;;;23.80;99.90;;;;;;5025701;28;19913;-67
2023/02/11 13:06:19;;;;;;;;;;;23.80;99.90;;;;;;5025720;28;20298;-63
2023/02/11 13:08:47;;;;;;;;;;;23.80;99.90;;;;;;5026337;28;20275;-68
2023/02/11 13:11:15;;;;;;;;;;;23.80;99.90;;;;;;5026033;28;19921;-65
2023/02/11 13:13:44;;;;;;;;;;;23.80;99.90;;;;;;5032525;28;20286;-72
2023/02/11 13:16:34;;;;;;;;;;;23.80;99.90;;;;;;5034484;28;20282;-66
2023/02/11 13:19:06;;;;;;;;;;;23.90;99.90;;;;;;5034737;28;19920;-74
2023/02/11 13:21:51;;;;;;;;;;;23.80;99.90;;;;;;5034504;28;20244;-66
2023/02/11 13:24:20;;;;;;;;;;;23.90;99.90;;;;;;5034772;28;19920;-64
2023/02/11 13:26:56;;;;;;;;;;;23.80;99.90;;;;;;5033946;28;19921;-63
2023/02/11 13:29:57;;;;;;;;;;;23.90;99.90;;;;;;5033762;28;19915;-63
2023/02/11 13:32:24;;;;;;;;;;;23.90;99.90;;;;;;4973280;28;19914;-64
2023/02/11 13:34:51;;;;;;;;;;;23.90;99.90;;;;;;5022059;28;19909;-64
2023/02/11 13:37:17;;;;;;;;;;;23.90;99.90;;;;;;5032712;28;19909;-63
2023/02/11 13:39:55;;;;;;;;;;;23.90;99.90;;;;;;5034078;28;19920;-64
2023/02/11 13:42:22;;;;;;;;;;;24.00;99.90;;;;;;5034604;28;19909;-64
2023/02/11 13:44:49;;;;;;;;;;;24.00;99.90;;;;;;5034571;28;19929;-64
2023/02/11 13:47:36;;;;;;;;;;;24.00;99.90;;;;;;5034053;28;19913;-64
2023/02/11 13:50:05;;;;;;;;;;;23.90;99.90;;;;;;5034086;28;19909;-64
2023/02/11 13:52:36;;;;;;;;;;;23.90;99.90;;;;;;5034097;28;19913;-64
2023/02/11 13:55:08;;;;;;;;;;;23.90;99.90;;;;;;5033790;28;19909;-64
2023/02/11 13:57:36;;;;;;;;;;;23.90;99.90;;;;;;5033411;28;19920;-64
2023/02/11 14:00:05;;;;;;;;;;;23.80;99.90;;;;;;5034073;28;20279;-66
2023/02/11 14:10:59;;;;;;;;;;;23.70;99.90;;;;;;5034358;28;20024;-69
2023/02/11 14:13:30;;;;;;;;;;;23.60;99.90;;;;;;5033818;28;20457;-64
2023/02/11 14:16:08;;;;;;;;;;;23.60;99.90;;;;;;5034006;28;19913;-65
2023/02/11 14:18:44;;;;;;;;;;;23.50;99.90;;;;;;5034015;28;19917;-66
2023/02/11 14:21:29;;;;;;;;;;;23.50;99.90;;;;;;5035036;28;19916;-64
2023/02/11 14:24:03;;;;;;;;;;;23.50;99.90;;;;;;5034073;28;19917;-64
2023/02/11 14:26:30;;;;;;;;;;;23.60;99.90;;;;;;5032125;28;19948;-68
2023/02/11 14:29:02;;;;;;;;;;;23.60;99.90;;;;;;5036880;28;20338;-67
2023/02/11 14:31:35;;;;;;;;;;;23.60;99.90;;;;;;5034267;28;20351;-65
2023/02/11 14:34:19;;;;;;;;;;;23.60;99.90;;;;;;5034697;28;19955;-70
2023/02/11 14:36:52;;;;;;;;;;;23.60;99.90;;;;;;5033845;28;20000;-70
2023/02/11 14:39:28;;;;;;;;;;;23.60;99.90;;;;;;5033042;28;20333;-70
2023/02/11 14:41:55;;;;;;;;;;;23.60;99.90;;;;;;5034982;28;20299;-67
2023/02/11 14:44:21;;;;;;;;;;;23.60;99.90;;;;;;5034179;28;19965;-67
2023/02/11 14:46:52;;;;;;;;;;;23.70;99.90;;;;;;5034057;28;19983;-67